Time;durP1;ratioP1;P1;durP2;ratioP2;P2;SDS_P1;SDS_P2;PMS_P1;PMS_P2;Temp;Humidity;BMP_temperature;BMP_pressure;BME280_temperature;BME280_humidity;BME280_pressure;Samples;Min_cycle;Max_cycle;Signal;HPM_P1;HPM_P2
2024/02/26 00:01:33;;;;;;;6.65;2.60;;;12.30;90.10;;;;;;5050404;28;20033;-77
2024/02/26 00:03:59;;;;;;;7.15;3.00;;;12.30;90.10;;;;;;5049813;28;20031;-76
2024/02/26 00:06:25;;;;;;;7.55;2.75;;;12.30;90.10;;;;;;5049947;28;20021;-77
2024/02/26 00:08:50;;;;;;;6.15;2.47;;;12.30;90.10;;;;;;5032284;28;20470;-76
2024/02/26 00:11:16;;;;;;;6.55;2.90;;;12.30;90.10;;;;;;5032170;28;20071;-77
2024/02/26 00:13:41;;;;;;;5.40;2.20;;;12.30;90.10;;;;;;5050102;28;20032;-76
2024/02/26 00:16:07;;;;;;;6.93;2.63;;;12.30;90.10;;;;;;5031893;28;20135;-77
2024/02/26 00:18:33;;;;;;;6.55;2.40;;;12.30;90.10;;;;;;5032205;28;20052;-76
2024/02/26 00:20:58;;;;;;;5.95;2.33;;;12.30;90.10;;;;;;5049707;28;20025;-77
2024/02/26 00:23:24;;;;;;;7.43;2.80;;;12.30;90.10;;;;;;5031732;28;20119;-77
2024/02/26 00:25:49;;;;;;;6.22;2.50;;;12.30;90.10;;;;;;5048013;28;20036;-78
2024/02/26 00:28:15;;;;;;;5.22;2.33;;;12.30;90.10;;;;;;5014701;28;999288;-77
2024/02/26 00:30:40;;;;;;;6.45;2.55;;;12.20;90.00;;;;;;5049546;28;20393;-77
2024/02/26 00:33:06;;;;;;;7.50;2.67;;;12.30;90.00;;;;;;5032265;28;20060;-74
2024/02/26 00:35:31;;;;;;;5.50;2.50;;;12.30;90.00;;;;;;5031759;28;20021;-76
2024/02/26 00:37:58;;;;;;;6.00;2.20;;;12.30;90.00;;;;;;5032468;28;20398;-77
2024/02/26 00:40:24;;;;;;;6.07;2.28;;;12.30;90.00;;;;;;5032447;28;20040;-77
2024/02/26 00:42:49;;;;;;;7.18;2.80;;;12.30;90.00;;;;;;5050276;28;20402;-77
2024/02/26 00:45:16;;;;;;;6.10;2.40;;;12.30;90.00;;;;;;5050339;28;20029;-77
2024/02/26 00:47:42;;;;;;;7.18;2.72;;;12.30;90.00;;;;;;5050538;28;20021;-75
2024/02/26 00:50:08;;;;;;;5.15;2.33;;;12.30;90.00;;;;;;5032257;28;20557;-77
2024/02/26 00:52:34;;;;;;;6.43;2.53;;;12.30;90.00;;;;;;5032186;28;20175;-77
2024/02/26 00:54:59;;;;;;;5.65;2.30;;;12.30;90.00;;;;;;5032465;28;20021;-77
2024/02/26 00:57:25;;;;;;;5.13;2.00;;;12.30;90.00;;;;;;5032847;28;20396;-78
2024/02/26 00:59:51;;;;;;;6.15;2.60;;;12.20;90.00;;;;;;5050483;28;20029;-77
2024/02/26 01:02:16;;;;;;;6.25;2.60;;;12.30;90.00;;;;;;5052100;28;20040;-77
2024/02/26 01:04:42;;;;;;;6.32;2.65;;;12.30;90.00;;;;;;5036871;28;20119;-77
2024/02/26 01:07:07;;;;;;;5.70;2.30;;;12.30;90.00;;;;;;5054253;28;20432;-77
2024/02/26 01:09:33;;;;;;;4.93;2.40;;;12.30;90.00;;;;;;5054363;28;20109;-77
2024/02/26 01:11:58;;;;;;;5.82;2.28;;;12.30;90.00;;;;;;5053799;28;20025;-77
2024/02/26 01:14:24;;;;;;;5.47;2.50;;;12.30;89.90;;;;;;5054488;28;20477;-77
2024/02/26 01:16:49;;;;;;;5.38;2.28;;;12.30;89.90;;;;;;5036292;28;20024;-77
2024/02/26 01:19:15;;;;;;;5.22;2.35;;;12.30;89.80;;;;;;5036348;28;20021;-77
2024/02/26 01:21:40;;;;;;;6.38;2.70;;;12.30;89.90;;;;;;5054411;28;20021;-77
2024/02/26 01:24:06;;;;;;;5.03;2.30;;;12.30;89.80;;;;;;5036121;28;20033;-77
2024/02/26 01:26:32;;;;;;;4.70;2.45;;;12.30;89.80;;;;;;5054359;28;20021;-76
2024/02/26 01:28:58;;;;;;;5.47;2.25;;;12.20;89.90;;;;;;5053767;28;20029;-77
2024/02/26 01:31:23;;;;;;;4.35;2.20;;;12.20;89.80;;;;;;5054162;28;20040;-77
2024/02/26 01:33:49;;;;;;;5.38;2.20;;;12.20;89.80;;;;;;5054248;28;20064;-78
2024/02/26 01:36:14;;;;;;;5.65;2.33;;;12.30;89.90;;;;;;5036024;28;20052;-77
2024/02/26 01:38:39;;;;;;;5.55;2.30;;;12.30;89.80;;;;;;5035786;28;20025;-77
2024/02/26 01:41:05;;;;;;;5.72;2.00;;;12.20;89.70;;;;;;5035749;28;20040;-77
2024/02/26 01:43:31;;;;;;;6.18;2.42;;;12.30;89.80;;;;;;5035496;28;20430;-77
2024/02/26 01:45:56;;;;;;;6.45;2.42;;;12.30;89.80;;;;;;5054173;28;20028;-78
2024/02/26 01:48:22;;;;;;;4.55;2.38;;;12.20;89.80;;;;;;5053879;28;20557;-77
2024/02/26 01:50:48;;;;;;;7.65;2.97;;;12.20;89.80;;;;;;5035612;28;20032;-76
2024/02/26 01:53:13;;;;;;;6.20;2.28;;;12.20;89.80;;;;;;5035587;28;20378;-77
2024/02/26 01:55:40;;;;;;;4.72;2.28;;;12.20;89.80;;;;;;5053579;28;20033;-77
2024/02/26 01:58:05;;;;;;;6.55;2.55;;;12.10;89.70;;;;;;5035452;28;20025;-77
2024/02/26 02:00:31;;;;;;;5.63;2.65;;;12.20;89.70;;;;;;5053632;28;20028;-76
2024/02/26 02:02:57;;;;;;;5.63;2.20;;;12.20;89.70;;;;;;5052972;28;20033;-77
2024/02/26 02:05:23;;;;;;;4.82;2.45;;;12.20;89.70;;;;;;5035575;28;20790;-77
2024/02/26 02:07:48;;;;;;;5.72;2.47;;;12.20;89.80;;;;;;5035507;28;20075;-77
2024/02/26 02:10:15;;;;;;;5.70;2.20;;;12.20;89.80;;;;;;5053455;28;20028;-77
2024/02/26 02:12:41;;;;;;;5.28;2.30;;;12.20;89.80;;;;;;5034863;28;20035;-77
2024/02/26 02:15:07;;;;;;;4.50;2.22;;;12.30;89.80;;;;;;5053114;28;20108;-77
2024/02/26 02:17:33;;;;;;;6.65;2.60;;;12.20;89.70;;;;;;5035234;28;20401;-78
2024/02/26 02:19:58;;;;;;;5.95;2.35;;;12.20;90.00;;;;;;5035081;28;20059;-78
2024/02/26 02:22:24;;;;;;;4.75;2.35;;;12.20;90.00;;;;;;5052869;28;20059;-77
2024/02/26 02:24:51;;;;;;;5.65;2.30;;;12.10;89.80;;;;;;5034877;28;20028;-77
2024/02/26 02:27:17;;;;;;;4.63;2.28;;;12.20;90.00;;;;;;5034624;28;20375;-77
2024/02/26 02:29:42;;;;;;;4.78;2.45;;;12.20;89.90;;;;;;5053140;28;20040;-77
2024/02/26 02:32:08;;;;;;;4.65;2.22;;;12.10;89.80;;;;;;5034850;28;20025;-77
2024/02/26 02:34:34;;;;;;;7.25;2.53;;;12.20;90.00;;;;;;5053555;28;20044;-77
2024/02/26 02:37:00;;;;;;;4.75;2.20;;;12.10;89.90;;;;;;5052829;28;20024;-78
2024/02/26 02:39:25;;;;;;;4.45;2.30;;;12.20;90.00;;;;;;5034985;28;20648;-77
2024/02/26 02:41:51;;;;;;;4.88;2.28;;;12.10;89.90;;;;;;5034728;28;20029;-77
2024/02/26 02:44:16;;;;;;;4.07;2.17;;;12.10;89.90;;;;;;5034576;28;20025;-76
2024/02/26 02:46:42;;;;;;;6.15;2.50;;;12.10;89.90;;;;;;5052615;28;20053;-78
2024/02/26 02:49:10;;;;;;;3.90;2.10;;;12.10;89.90;;;;;;5034209;28;20029;-77
2024/02/26 02:51:37;;;;;;;4.78;2.25;;;12.10;90.00;;;;;;5052495;28;20021;-77
2024/02/26 02:54:02;;;;;;;5.32;2.42;;;12.10;90.00;;;;;;5052572;28;20048;-79
2024/02/26 02:56:28;;;;;;;5.00;2.42;;;12.10;90.00;;;;;;5052378;28;20656;-75
2024/02/26 02:58:53;;;;;;;5.32;2.30;;;12.10;90.00;;;;;;5034093;28;20037;-78
2024/02/26 03:01:19;;;;;;;4.88;2.25;;;12.10;90.00;;;;;;5052116;28;20037;-75
2024/02/26 03:03:44;;;;;;;4.43;2.10;;;12.10;89.90;;;;;;5051854;28;20093;-75
2024/02/26 03:06:10;;;;;;;5.05;2.30;;;12.00;90.20;;;;;;5051706;28;20104;-75
2024/02/26 03:08:37;;;;;;;5.00;2.22;;;12.10;90.00;;;;;;5033556;28;20017;-74
2024/02/26 03:11:04;;;;;;;5.03;2.28;;;12.00;90.00;;;;;;5033671;28;20083;-75
2024/02/26 03:13:29;;;;;;;5.68;2.67;;;12.00;90.00;;;;;;5051376;28;20029;-75
2024/02/26 03:15:55;;;;;;;5.18;2.08;;;12.10;90.00;;;;;;5033428;28;20021;-76
2024/02/26 03:18:20;;;;;;;4.85;2.40;;;12.10;90.00;;;;;;5033543;28;20029;-75
2024/02/26 03:20:46;;;;;;;5.20;2.15;;;12.10;90.00;;;;;;5051696;28;20017;-75
2024/02/26 03:23:14;;;;;;;4.82;2.20;;;12.10;90.00;;;;;;5033282;28;20013;-77
2024/02/26 03:25:41;;;;;;;5.13;2.40;;;12.10;89.90;;;;;;5032518;28;20029;-75
2024/02/26 03:28:07;;;;;;;4.47;2.10;;;12.10;89.90;;;;;;5051294;28;20660;-77
2024/02/26 03:30:32;;;;;;;4.68;2.30;;;12.10;89.90;;;;;;5051320;28;20021;-75
2024/02/26 03:32:57;;;;;;;4.40;2.15;;;12.10;89.90;;;;;;5033674;28;20025;-75
2024/02/26 03:35:23;;;;;;;4.18;1.80;;;12.10;89.90;;;;;;5033805;28;20025;-75
2024/02/26 03:37:50;;;;;;;5.00;2.20;;;12.10;90.00;;;;;;5051596;28;20028;-76
2024/02/26 03:40:16;;;;;;;4.20;2.03;;;12.10;90.00;;;;;;5051929;28;20391;-75
2024/02/26 03:42:41;;;;;;;5.43;2.40;;;12.10;90.00;;;;;;5051435;28;20031;-76
2024/02/26 03:45:07;;;;;;;3.90;1.85;;;12.10;90.00;;;;;;5051532;28;20122;-75
2024/02/26 03:47:32;;;;;;;4.32;1.98;;;12.10;90.00;;;;;;5051413;28;20072;-75
2024/02/26 03:49:59;;;;;;;4.95;2.40;;;12.10;90.00;;;;;;5051470;28;20540;-74
2024/02/26 03:52:24;;;;;;;4.40;2.05;;;12.10;90.00;;;;;;5033338;28;20028;-75
2024/02/26 03:54:50;;;;;;;3.42;1.90;;;12.10;90.00;;;;;;5046928;28;20100;-75
2024/02/26 03:57:15;;;;;;;4.78;2.30;;;12.10;90.00;;;;;;5032361;28;20120;-75
2024/02/26 03:59:41;;;;;;;3.92;1.90;;;12.10;90.00;;;;;;5033054;28;20116;-75
2024/02/26 04:02:06;;;;;;;4.63;2.15;;;12.10;90.00;;;;;;5050979;28;20028;-76
2024/02/26 04:04:34;;;;;;;4.85;2.25;;;12.00;90.00;;;;;;5051146;28;20394;-77
2024/02/26 04:07:00;;;;;;;4.45;2.15;;;12.10;90.00;;;;;;5033290;28;20025;-78
2024/02/26 04:09:25;;;;;;;3.65;1.77;;;12.00;90.00;;;;;;5050197;28;20029;-76
2024/02/26 04:11:51;;;;;;;4.97;2.15;;;12.10;90.00;;;;;;5032537;28;20493;-75
2024/02/26 04:14:16;;;;;;;4.30;1.98;;;12.10;90.00;;;;;;5051189;28;20727;-76
2024/02/26 04:16:42;;;;;;;4.22;1.80;;;12.10;90.00;;;;;;5047272;28;20032;-76
2024/02/26 04:19:07;;;;;;;6.57;2.45;;;12.10;90.00;;;;;;5028908;28;20687;-76
2024/02/26 04:21:34;;;;;;;4.13;2.10;;;12.00;90.00;;;;;;5028427;28;20032;-76
2024/02/26 04:24:01;;;;;;;3.33;1.88;;;12.00;90.00;;;;;;5046610;28;20033;-76
2024/02/26 04:26:28;;;;;;;4.22;1.90;;;12.00;90.00;;;;;;5029767;28;20013;-76
2024/02/26 04:28:53;;;;;;;4.15;2.10;;;12.00;90.00;;;;;;5047644;28;20514;-76
2024/02/26 04:31:19;;;;;;;3.92;1.92;;;12.10;90.00;;;;;;5029995;28;20033;-77
2024/02/26 04:33:44;;;;;;;4.18;1.92;;;12.00;90.00;;;;;;5029021;28;20120;-80
2024/02/26 04:36:17;;;;;;;3.47;1.77;;;12.00;90.20;;;;;;5046548;28;20028;-76
2024/02/26 04:38:43;;;;;;;3.65;1.90;;;12.00;90.00;;;;;;5038028;28;20037;-76
2024/02/26 04:41:09;;;;;;;3.70;1.90;;;12.00;90.00;;;;;;5028286;28;20035;-76
2024/02/26 04:43:36;;;;;;;3.50;1.80;;;12.00;90.00;;;;;;5028306;28;20029;-76
2024/02/26 04:46:01;;;;;;;4.00;1.77;;;12.00;90.00;;;;;;5028783;28;20025;-76
2024/02/26 04:48:27;;;;;;;3.50;1.90;;;12.00;90.00;;;;;;5045431;28;20095;-78
2024/02/26 04:50:53;;;;;;;3.70;1.85;;;12.00;90.00;;;;;;5045008;28;20040;-76
2024/02/26 04:53:18;;;;;;;3.60;1.90;;;12.00;90.00;;;;;;5025816;28;20021;-79
2024/02/26 04:55:44;;;;;;;3.42;1.92;;;12.00;90.00;;;;;;5026017;28;20562;-74
2024/02/26 04:58:10;;;;;;;4.13;2.03;;;12.00;90.00;;;;;;5026779;28;20032;-78
2024/02/26 05:00:35;;;;;;;4.70;2.10;;;12.00;90.00;;;;;;5043961;28;20103;-78
2024/02/26 05:03:01;;;;;;;4.10;2.05;;;12.00;90.00;;;;;;5026731;28;20035;-76
2024/02/26 05:05:26;;;;;;;3.90;1.83;;;12.00;90.00;;;;;;5026870;28;20102;-78
2024/02/26 05:07:52;;;;;;;3.70;1.80;;;12.00;90.00;;;;;;5027067;28;20455;-78
2024/02/26 05:10:17;;;;;;;3.83;1.85;;;12.00;90.00;;;;;;5028350;28;20024;-79
2024/02/26 05:12:43;;;;;;;4.53;2.05;;;12.00;90.00;;;;;;5045002;28;20025;-77
2024/02/26 05:15:10;;;;;;;3.75;1.88;;;12.00;90.00;;;;;;5027881;28;20025;-78
2024/02/26 05:17:35;;;;;;;4.45;2.30;;;12.00;90.00;;;;;;5026109;28;20327;-76
2024/02/26 05:20:00;;;;;;;5.32;2.40;;;12.00;90.00;;;;;;5047106;28;20100;-77
2024/02/26 05:22:26;;;;;;;4.32;2.15;;;12.00;89.90;;;;;;5031827;28;20033;-77
2024/02/26 05:24:52;;;;;;;4.22;2.28;;;12.00;90.00;;;;;;5050077;28;20120;-75
2024/02/26 05:27:17;;;;;;;3.33;1.90;;;12.00;90.00;;;;;;5050243;28;20029;-78
2024/02/26 05:29:43;;;;;;;4.40;2.10;;;12.00;89.90;;;;;;5032301;28;20036;-78
2024/02/26 05:32:08;;;;;;;4.53;2.08;;;12.00;89.90;;;;;;5032059;28;20385;-78
2024/02/26 05:34:34;;;;;;;4.97;2.13;;;12.00;89.90;;;;;;5032265;28;20128;-78
2024/02/26 05:36:59;;;;;;;3.75;1.80;;;12.00;89.90;;;;;;5050245;28;20082;-77
2024/02/26 05:39:25;;;;;;;3.53;1.80;;;12.00;90.00;;;;;;5032233;28;20116;-78
2024/02/26 05:41:50;;;;;;;4.22;1.90;;;11.90;89.90;;;;;;5031964;28;20040;-78
2024/02/26 05:44:16;;;;;;;4.95;1.80;;;12.00;89.90;;;;;;5032141;28;20111;-77
2024/02/26 05:46:42;;;;;;;3.65;1.80;;;12.00;89.90;;;;;;5032444;28;20025;-77
2024/02/26 05:49:07;;;;;;;3.17;1.70;;;12.00;89.90;;;;;;5035329;28;20028;-77
2024/02/26 05:51:33;;;;;;;3.50;1.80;;;12.00;89.90;;;;;;5053384;28;20093;-78
2024/02/26 05:53:58;;;;;;;3.70;2.03;;;12.00;89.90;;;;;;5035103;28;20124;-77
2024/02/26 05:56:24;;;;;;;3.17;1.92;;;12.00;89.90;;;;;;5047490;28;20025;-77
2024/02/26 05:58:50;;;;;;;3.15;1.90;;;12.00;89.90;;;;;;5034618;28;20028;-78
2024/02/26 06:01:17;;;;;;;3.95;1.92;;;12.00;89.90;;;;;;5053214;28;20017;-78
2024/02/26 06:03:43;;;;;;;3.17;1.90;;;12.00;89.90;;;;;;5034914;28;20048;-77
2024/02/26 06:06:09;;;;;;;4.05;1.90;;;12.00;89.90;;;;;;5053405;28;20118;-78
2024/02/26 06:08:35;;;;;;;4.03;1.80;;;12.00;89.90;;;;;;5035009;28;20025;-77
2024/02/26 06:11:06;;;;;;;3.92;1.77;;;12.00;89.90;;;;;;5033286;28;20390;-78
2024/02/26 06:13:31;;;;;;;3.72;1.90;;;12.00;89.90;;;;;;5034558;28;20025;-75
2024/02/26 06:15:57;;;;;;;5.78;2.00;;;12.00;90.00;;;;;;5052677;28;20067;-78
2024/02/26 06:18:22;;;;;;;3.08;1.55;;;12.00;89.90;;;;;;5052630;28;20025;-78
2024/02/26 06:20:48;;;;;;;4.03;1.70;;;12.00;90.00;;;;;;5052534;28;20505;-78
2024/02/26 06:23:13;;;;;;;3.63;1.83;;;12.00;89.90;;;;;;5052392;28;20037;-77
2024/02/26 06:25:39;;;;;;;4.50;2.17;;;12.00;89.90;;;;;;5034323;28;20433;-75
2024/02/26 06:28:04;;;;;;;3.75;1.83;;;12.00;89.90;;;;;;5052510;28;20489;-78
2024/02/26 06:30:30;;;;;;;2.95;1.60;;;12.00;89.90;;;;;;5052788;28;20057;-78
2024/02/26 06:32:55;;;;;;;2.70;1.63;;;12.00;90.00;;;;;;5034436;28;20017;-77
2024/02/26 06:35:21;;;;;;;3.08;1.60;;;12.00;89.90;;;;;;5052608;28;20043;-77
2024/02/26 06:37:46;;;;;;;3.83;1.80;;;12.00;89.90;;;;;;5034553;28;20086;-78
2024/02/26 06:40:12;;;;;;;2.58;1.60;;;12.00;90.00;;;;;;5034619;28;20056;-77
2024/02/26 06:42:37;;;;;;;3.70;1.83;;;12.00;89.90;;;;;;5034422;28;20123;-77
2024/02/26 06:45:04;;;;;;;4.82;1.83;;;12.00;89.90;;;;;;5034560;28;20033;-77
2024/02/26 06:47:30;;;;;;;2.80;1.80;;;12.00;89.90;;;;;;5052279;28;20068;-77
2024/02/26 06:49:58;;;;;;;3.17;1.85;;;11.90;89.90;;;;;;5034430;28;20438;-77
2024/02/26 06:52:24;;;;;;;4.68;1.60;;;12.00;89.90;;;;;;5034413;28;20051;-77
2024/02/26 06:54:51;;;;;;;2.47;1.63;;;12.00;89.90;;;;;;5052413;28;20029;-77
2024/02/26 06:57:16;;;;;;;3.42;1.70;;;12.00;89.90;;;;;;5052067;28;20116;-77
2024/02/26 06:59:46;;;;;;;3.33;1.75;;;12.00;89.90;;;;;;5050845;28;20111;-76
2024/02/26 07:02:11;;;;;;;2.83;1.60;;;12.00;89.90;;;;;;5034096;28;20025;-77
2024/02/26 07:04:37;;;;;;;2.67;1.50;;;12.00;89.90;;;;;;5034178;28;20075;-76
2024/02/26 07:07:02;;;;;;;3.97;1.98;;;11.90;89.90;;;;;;5034015;28;20472;-77
2024/02/26 07:09:28;;;;;;;3.80;1.70;;;12.00;89.90;;;;;;5052396;28;20516;-77
2024/02/26 07:11:53;;;;;;;3.17;1.50;;;11.90;89.80;;;;;;5033674;28;20117;-77
2024/02/26 07:14:19;;;;;;;3.53;1.63;;;12.00;89.90;;;;;;5034576;28;20493;-76
2024/02/26 07:16:44;;;;;;;4.03;1.90;;;11.90;89.80;;;;;;5034311;28;20040;-76
2024/02/26 07:19:09;;;;;;;3.75;1.80;;;12.00;89.90;;;;;;5052253;28;20033;-77
2024/02/26 07:21:35;;;;;;;3.78;1.88;;;12.00;89.90;;;;;;5052306;28;20116;-77
2024/02/26 07:24:00;;;;;;;2.95;1.73;;;12.00;89.90;;;;;;5034008;28;20035;-77
2024/02/26 07:26:26;;;;;;;4.53;1.88;;;11.90;89.80;;;;;;5051738;28;20029;-77
2024/02/26 07:28:52;;;;;;;3.35;1.70;;;11.90;89.80;;;;;;5033622;28;20052;-77
2024/02/26 07:31:18;;;;;;;2.92;1.58;;;12.00;89.80;;;;;;5033973;28;20058;-77
2024/02/26 07:33:43;;;;;;;3.80;1.70;;;12.00;89.90;;;;;;5033473;28;20021;-77
2024/02/26 07:36:09;;;;;;;3.25;1.40;;;12.00;89.90;;;;;;5051742;28;20025;-77
2024/02/26 07:38:34;;;;;;;3.35;1.60;;;11.90;89.80;;;;;;5033369;28;20033;-78
2024/02/26 07:41:02;;;;;;;3.58;1.80;;;11.90;89.80;;;;;;5051136;28;20031;-77
2024/02/26 07:43:27;;;;;;;3.22;1.60;;;11.90;89.80;;;;;;5051122;28;20026;-77
2024/02/26 07:45:53;;;;;;;3.50;1.80;;;12.00;89.80;;;;;;5028452;28;20096;-77
2024/02/26 07:48:18;;;;;;;2.75;1.75;;;12.00;89.80;;;;;;5030648;28;20534;-77
2024/02/26 07:50:44;;;;;;;3.75;1.77;;;12.00;89.80;;;;;;5028883;28;20026;-76
2024/02/26 07:53:09;;;;;;;3.90;1.90;;;11.90;89.80;;;;;;5029920;28;20052;-77
2024/02/26 07:55:35;;;;;;;3.10;1.70;;;11.90;89.80;;;;;;5030043;28;20025;-77
2024/02/26 07:58:00;;;;;;;3.05;1.70;;;12.00;89.90;;;;;;5031044;28;20095;-76
2024/02/26 08:00:26;;;;;;;2.75;1.52;;;12.00;89.80;;;;;;5031802;28;20371;-76
2024/02/26 08:02:51;;;;;;;4.35;2.00;;;11.90;89.80;;;;;;5030064;28;20026;-77
2024/02/26 08:05:17;;;;;;;3.85;1.90;;;11.90;89.80;;;;;;5013860;28;20028;-77
2024/02/26 08:07:42;;;;;;;2.20;1.48;;;11.90;89.80;;;;;;5030149;28;20408;-77
2024/02/26 08:10:08;;;;;;;3.72;2.10;;;11.90;89.80;;;;;;5031204;28;20030;-77
2024/02/26 08:12:34;;;;;;;3.05;1.77;;;12.00;89.80;;;;;;5013480;28;20556;-77
2024/02/26 08:15:00;;;;;;;3.42;1.83;;;12.00;89.80;;;;;;5031613;28;20029;-77
2024/02/26 08:17:27;;;;;;;3.05;1.60;;;11.90;89.70;;;;;;5030110;28;20024;-77
2024/02/26 08:19:52;;;;;;;2.88;1.60;;;11.90;89.80;;;;;;5031408;28;20453;-77
2024/02/26 08:22:18;;;;;;;3.13;1.60;;;12.00;89.80;;;;;;5030039;28;20075;-78
2024/02/26 08:24:43;;;;;;;3.78;1.67;;;11.90;89.80;;;;;;5030044;28;20029;-77
2024/02/26 08:27:09;;;;;;;2.88;1.58;;;12.00;89.80;;;;;;5029568;28;20461;-76
2024/02/26 08:29:34;;;;;;;3.72;1.90;;;12.00;89.80;;;;;;5013119;28;20079;-77
2024/02/26 08:32:00;;;;;;;3.97;1.80;;;12.00;89.80;;;;;;5029066;28;20026;-77
2024/02/26 08:34:26;;;;;;;3.38;1.70;;;11.90;89.70;;;;;;5029537;28;20117;-77
2024/02/26 08:36:51;;;;;;;3.03;1.67;;;11.90;89.70;;;;;;5030576;28;20037;-77
2024/02/26 08:39:17;;;;;;;3.65;1.80;;;11.90;89.70;;;;;;5012913;28;20025;-77
2024/02/26 08:41:46;;;;;;;4.05;1.92;;;11.90;89.70;;;;;;5029120;28;20036;-77
2024/02/26 08:44:12;;;;;;;4.28;1.95;;;12.00;89.80;;;;;;5029156;28;20026;-77
2024/02/26 08:46:37;;;;;;;3.65;1.67;;;12.00;89.70;;;;;;5029278;28;20025;-77
2024/02/26 08:49:03;;;;;;;3.63;1.80;;;11.90;89.70;;;;;;5012595;28;20072;-77
2024/02/26 08:51:29;;;;;;;3.22;1.80;;;11.90;89.70;;;;;;5030388;28;20029;-77
2024/02/26 08:53:54;;;;;;;3.00;1.75;;;11.90;89.70;;;;;;5028787;28;20077;-77
2024/02/26 08:56:21;;;;;;;3.00;1.70;;;11.90;89.70;;;;;;5029207;28;20017;-77
2024/02/26 08:58:48;;;;;;;3.03;1.67;;;12.00;89.80;;;;;;5030538;28;20021;-77
2024/02/26 09:01:14;;;;;;;3.72;1.70;;;12.00;89.80;;;;;;5029141;28;20028;-77
2024/02/26 09:03:40;;;;;;;3.67;1.70;;;11.90;89.70;;;;;;5029901;28;20032;-78
2024/02/26 09:06:06;;;;;;;3.05;1.90;;;11.90;89.70;;;;;;5028716;28;20021;-77
2024/02/26 09:08:32;;;;;;;3.17;1.70;;;11.90;89.70;;;;;;5028686;28;20022;-77
2024/02/26 09:10:58;;;;;;;2.92;1.77;;;11.90;89.70;;;;;;5030144;28;20036;-77
2024/02/26 09:13:23;;;;;;;3.20;1.80;;;12.00;89.80;;;;;;5028617;28;20033;-78
2024/02/26 09:15:49;;;;;;;2.97;1.50;;;11.90;89.70;;;;;;5029975;28;20108;-77
2024/02/26 09:18:14;;;;;;;10.88;2.50;;;11.90;89.70;;;;;;5029079;28;20038;-77
2024/02/26 09:20:40;;;;;;;19.40;3.47;;;11.90;89.20;;;;;;5030332;28;20109;-77
2024/02/26 09:23:06;;;;;;;17.55;4.00;;;11.80;86.30;;;;;;5030554;28;20029;-77
2024/02/26 09:25:33;;;;;;;20.35;4.10;;;11.80;85.80;;;;;;5034975;28;20505;-78
2024/02/26 09:27:59;;;;;;;17.33;4.38;;;11.70;81.00;;;;;;5033242;28;20033;-77
2024/02/26 09:30:24;;;;;;;21.55;4.55;;;11.60;78.20;;;;;;5033662;28;20037;-78
2024/02/26 09:32:50;;;;;;;13.32;4.13;;;11.60;76.80;;;;;;5016745;28;20028;-77
2024/02/26 09:35:15;;;;;;;18.23;4.40;;;11.50;75.60;;;;;;5033097;28;20029;-76
2024/02/26 09:37:42;;;;;;;16.15;4.10;;;11.50;75.20;;;;;;5016227;28;20397;-77
2024/02/26 09:40:11;;;;;;;19.70;4.43;;;11.60;77.60;;;;;;5034105;28;20021;-76
2024/02/26 09:42:41;;;;;;;16.05;4.20;;;11.60;78.50;;;;;;5015969;28;20456;-78
2024/02/26 09:45:12;;;;;;;15.57;3.92;;;11.70;79.30;;;;;;5032228;28;20187;-77
2024/02/26 09:47:38;;;;;;;11.50;3.72;;;11.70;79.80;;;;;;5032123;28;20044;-77
2024/02/26 09:50:07;;;;;;;14.63;4.22;;;11.70;80.30;;;;;;5031936;28;20486;-77
2024/02/26 09:52:34;;;;;;;13.30;5.18;;;11.70;80.60;;;;;;5031820;28;20025;-76
2024/02/26 09:55:00;;;;;;;8.57;3.65;;;11.80;81.00;;;;;;5031990;28;20030;-77
2024/02/26 09:57:26;;;;;;;14.70;3.80;;;11.80;81.40;;;;;;5031963;28;20414;-77
2024/02/26 09:59:58;;;;;;;12.82;3.95;;;11.80;81.80;;;;;;5033180;28;20059;-77
2024/02/26 10:02:23;;;;;;;13.32;4.57;;;11.80;82.00;;;;;;5033066;28;20025;-76
2024/02/26 10:04:50;;;;;;;11.02;3.85;;;11.80;82.40;;;;;;5033363;28;20037;-77
2024/02/26 10:07:16;;;;;;;8.02;3.40;;;11.80;82.80;;;;;;5033187;28;20028;-76
2024/02/26 10:09:42;;;;;;;10.80;3.65;;;11.90;83.10;;;;;;5033033;28;20436;-77
2024/02/26 10:12:11;;;;;;;12.15;3.60;;;11.90;83.30;;;;;;5032881;28;20076;-77
2024/02/26 10:14:37;;;;;;;9.40;3.60;;;11.90;83.60;;;;;;5031751;28;20037;-76
2024/02/26 10:17:05;;;;;;;10.25;3.40;;;11.90;83.70;;;;;;5015119;28;20042;-76
2024/02/26 10:19:32;;;;;;;10.52;3.72;;;11.90;83.90;;;;;;5031737;28;20142;-76
2024/02/26 10:21:58;;;;;;;11.38;3.67;;;11.90;84.00;;;;;;5045148;28;20032;-76
2024/02/26 10:24:25;;;;;;;9.25;3.63;;;11.90;84.20;;;;;;5034812;28;20029;-76
2024/02/26 10:26:51;;;;;;;11.95;3.78;;;11.90;84.40;;;;;;5052174;28;20485;-77
2024/02/26 10:29:18;;;;;;;9.73;3.95;;;11.90;84.60;;;;;;5052524;28;20025;-76
2024/02/26 10:31:44;;;;;;;9.80;3.38;;;11.90;84.70;;;;;;5052469;28;20029;-76
2024/02/26 10:34:10;;;;;;;8.98;3.40;;;11.80;84.70;;;;;;5052188;28;20035;-77
2024/02/26 10:36:35;;;;;;;8.75;3.22;;;11.90;85.00;;;;;;5052674;28;20107;-76
2024/02/26 10:39:05;;;;;;;8.68;3.67;;;11.90;85.00;;;;;;5052424;28;20039;-77
2024/02/26 10:41:32;;;;;;;8.48;3.78;;;11.90;85.10;;;;;;5034515;28;20519;-77
2024/02/26 10:43:58;;;;;;;7.32;3.42;;;11.90;85.20;;;;;;5034057;28;20039;-76
2024/02/26 10:46:23;;;;;;;10.45;3.45;;;11.90;85.30;;;;;;5034300;28;20021;-77
2024/02/26 10:48:53;;;;;;;6.60;3.28;;;11.90;85.50;;;;;;5034208;28;20477;-77
2024/02/26 10:51:24;;;;;;;12.60;3.65;;;11.80;85.40;;;;;;5034433;28;20021;-77
2024/02/26 10:53:54;;;;;;;9.77;3.72;;;11.90;85.50;;;;;;5052469;28;20043;-77
2024/02/26 10:56:21;;;;;;;13.05;3.45;;;11.90;85.50;;;;;;5034430;28;20032;-77
2024/02/26 10:58:47;;;;;;;9.10;3.40;;;11.90;85.50;;;;;;5034544;28;20572;-77
2024/02/26 11:01:13;;;;;;;11.02;3.70;;;11.90;85.50;;;;;;5034984;28;20124;-76
2024/02/26 11:03:40;;;;;;;13.27;4.38;;;12.00;85.50;;;;;;5033924;28;20060;-77
2024/02/26 11:06:06;;;;;;;15.43;3.70;;;11.90;85.60;;;;;;5050641;28;20025;-77
2024/02/26 11:08:32;;;;;;;13.07;3.83;;;11.90;85.70;;;;;;5050936;28;20043;-77
2024/02/26 11:10:58;;;;;;;11.88;3.85;;;12.00;85.80;;;;;;5033500;28;20501;-77
2024/02/26 11:13:29;;;;;;;8.35;3.65;;;11.90;85.80;;;;;;5032372;28;20390;-77
2024/02/26 11:15:57;;;;;;;10.50;3.20;;;12.00;86.00;;;;;;5032288;28;20029;-77
2024/02/26 11:18:25;;;;;;;11.05;3.20;;;12.00;86.00;;;;;;5050490;28;20464;-78
2024/02/26 11:20:51;;;;;;;11.70;3.63;;;12.00;86.10;;;;;;5033597;28;20029;-77
2024/02/26 11:23:17;;;;;;;8.43;3.38;;;11.90;86.10;;;;;;5051578;28;20025;-78
2024/02/26 11:25:43;;;;;;;9.63;3.10;;;11.90;86.20;;;;;;5051543;28;20374;-77
2024/02/26 11:28:16;;;;;;;9.45;3.33;;;11.90;86.20;;;;;;5034021;28;20032;-77
2024/02/26 11:30:45;;;;;;;10.98;3.33;;;12.00;86.30;;;;;;5034105;28;20394;-76
2024/02/26 11:33:12;;;;;;;9.30;3.42;;;12.00;86.40;;;;;;5033694;28;20115;-77
2024/02/26 11:35:38;;;;;;;9.82;3.60;;;11.90;86.40;;;;;;5051738;28;20029;-77
2024/02/26 11:38:06;;;;;;;9.88;3.38;;;11.90;86.40;;;;;;5051669;28;20506;-77
2024/02/26 11:40:32;;;;;;;10.02;3.45;;;11.90;86.50;;;;;;5033794;28;20512;-77
2024/02/26 11:42:58;;;;;;;8.43;3.00;;;12.00;86.50;;;;;;5033360;28;20045;-77
2024/02/26 11:45:39;;;;;;;8.65;3.42;;;11.90;86.50;;;;;;5032951;28;20029;-77
2024/02/26 11:48:12;;;;;;;8.35;3.20;;;11.90;86.60;;;;;;5033231;28;20024;-77
2024/02/26 11:50:42;;;;;;;7.32;3.03;;;11.90;86.60;;;;;;5033015;28;20025;-77
2024/02/26 11:53:25;;;;;;;10.30;3.30;;;12.00;86.70;;;;;;5033050;28;20033;-77
2024/02/26 11:56:29;;;;;;;8.05;2.75;;;12.00;86.70;;;;;;5033167;28;20032;-77
2024/02/26 11:58:59;;;;;;;9.15;3.10;;;11.90;86.70;;;;;;5051363;28;20525;-77
2024/02/26 12:01:43;;;;;;;8.00;2.95;;;11.90;86.70;;;;;;5033248;28;20033;-77
2024/02/26 12:04:21;;;;;;;6.95;3.03;;;11.90;86.70;;;;;;5033056;28;20493;-77
2024/02/26 12:06:51;;;;;;;7.65;2.78;;;12.00;86.80;;;;;;5032859;28;20029;-77
2024/02/26 12:09:40;;;;;;;8.95;3.15;;;11.90;86.80;;;;;;5050775;28;20024;-77
2024/02/26 12:12:13;;;;;;;9.25;3.17;;;11.90;86.80;;;;;;5032610;28;20027;-78
2024/02/26 12:14:50;;;;;;;8.88;3.30;;;11.90;86.80;;;;;;5050727;28;20025;-78
2024/02/26 12:17:20;;;;;;;10.40;3.38;;;12.00;86.80;;;;;;5050475;28;20033;-78
2024/02/26 12:19:46;;;;;;;11.57;3.00;;;11.90;86.80;;;;;;5032435;28;20083;-78
2024/02/26 12:22:14;;;;;;;9.05;3.25;;;11.90;86.80;;;;;;5032506;28;20029;-77
2024/02/26 12:24:39;;;;;;;9.57;2.70;;;12.00;86.90;;;;;;5032658;28;20079;-77
2024/02/26 12:27:06;;;;;;;10.10;3.08;;;11.90;86.90;;;;;;5032767;28;20029;-77
2024/02/26 12:29:31;;;;;;;9.52;2.88;;;12.00;86.90;;;;;;5033995;28;20374;-79
2024/02/26 12:31:57;;;;;;;7.68;2.88;;;12.00;86.90;;;;;;5036219;28;20051;-78
2024/02/26 12:34:23;;;;;;;8.10;3.10;;;11.90;86.90;;;;;;5032571;28;20493;-81
2024/02/26 12:36:49;;;;;;;9.02;2.78;;;11.90;87.00;;;;;;5032413;28;20060;-78
2024/02/26 12:39:14;;;;;;;9.27;3.15;;;11.90;87.00;;;;;;5032457;28;20441;-77
2024/02/26 12:41:40;;;;;;;9.82;2.78;;;11.90;87.00;;;;;;5050518;28;20036;-76